createdAt,value
2019-01-21T00:00:22.888Z,0
2019-01-21T00:01:32.065Z,0
2019-01-21T00:02:41.740Z,0
2019-01-21T00:03:51.420Z,0
2019-01-21T00:05:01.081Z,0
2019-01-21T00:06:10.506Z,0
2019-01-21T00:07:20.185Z,0
2019-01-21T00:08:30.106Z,0
2019-01-21T00:09:39.774Z,0
2019-01-21T00:10:49.441Z,0
2019-01-21T00:11:58.862Z,0
2019-01-21T00:13:08.032Z,0
2019-01-21T00:14:17.456Z,0
2019-01-21T00:15:27.364Z,0
2019-01-21T00:16:37.029Z,0
2019-01-21T00:17:46.702Z,0
2019-01-21T00:18:56.122Z,0
2019-01-21T00:20:05.798Z,0
2019-01-21T00:21:15.474Z,0
2019-01-21T00:22:24.896Z,0
2019-01-21T00:23:34.570Z,0
2019-01-21T00:24:44.485Z,0
2019-01-21T00:25:54.153Z,0
2019-01-21T00:27:03.824Z,0
2019-01-21T00:28:13.753Z,0
2019-01-21T00:29:23.428Z,0
2019-01-21T00:30:33.347Z,0
2019-01-21T00:31:42.775Z,0
2019-01-21T00:32:52.191Z,0
2019-01-21T00:34:02.114Z,0
2019-01-21T00:35:11.539Z,0
2019-01-21T00:36:21.454Z,0
2019-01-21T00:37:30.888Z,0
2019-01-21T00:38:40.065Z,0
2019-01-21T00:39:50.001Z,0
2019-01-21T00:40:59.666Z,0
2019-01-21T00:42:09.584Z,0
2019-01-21T00:43:19.256Z,0
2019-01-21T00:44:28.920Z,0
2019-01-21T00:45:38.089Z,0
2019-01-21T00:46:47.753Z,0
2019-01-21T00:47:57.428Z,0
2019-01-21T00:49:06.843Z,0
2019-01-21T00:50:16.722Z,0
2019-01-21T00:51:26.509Z,0
2019-01-21T00:52:36.180Z,0
2019-01-21T00:53:45.594Z,0
2019-01-21T00:54:55.690Z,0
2019-01-21T00:56:05.364Z,0
2019-01-21T00:57:15.030Z,0
2019-01-21T00:58:24.214Z,0
2019-01-21T00:59:34.127Z,0
2019-01-21T01:00:43.804Z,0
2019-01-21T01:01:53.241Z,0
2019-01-21T01:03:02.913Z,0
2019-01-21T01:04:12.835Z,0
2019-01-21T01:05:22.010Z,0
2019-01-21T01:06:31.923Z,0
2019-01-21T01:07:41.846Z,0
2019-01-21T01:08:51.760Z,0
2019-01-21T01:10:01.676Z,0
2019-01-21T01:11:11.345Z,0
2019-01-21T01:12:20.573Z,0
2019-01-21T01:13:29.992Z,0
2019-01-21T01:14:39.660Z,0
2019-01-21T01:15:49.574Z,0
2019-01-21T01:16:59.242Z,0
2019-01-21T01:18:08.659Z,0
2019-01-21T01:19:18.576Z,0
2019-01-21T01:20:28.541Z,0
2019-01-21T01:21:38.452Z,0
2019-01-21T01:22:47.870Z,0
2019-01-21T01:23:57.542Z,0
2019-01-21T01:25:07.210Z,0
2019-01-21T01:26:16.919Z,0
2019-01-21T01:27:26.586Z,0
2019-01-21T01:28:36.007Z,0
2019-01-21T01:29:45.167Z,0
2019-01-21T01:30:54.842Z,0
2019-01-21T01:32:04.511Z,0
2019-01-21T01:33:14.423Z,0
2019-01-21T01:34:23.835Z,0
2019-01-21T01:35:33.270Z,0
2019-01-21T01:36:42.707Z,0
2019-01-21T01:37:52.622Z,0
2019-01-21T01:39:01.792Z,0
2019-01-21T01:40:11.465Z,0
2019-01-21T01:41:20.900Z,0
2019-01-21T01:42:30.600Z,0
2019-01-21T01:43:40.287Z,0
2019-01-21T01:44:49.776Z,0
2019-01-21T01:45:59.503Z,0
2019-01-21T01:47:09.448Z,0
2019-01-21T01:48:19.135Z,0
2019-01-21T01:49:29.090Z,0
2019-01-21T01:50:38.525Z,0
2019-01-21T01:51:47.963Z,0
2019-01-21T01:52:57.664Z,0
2019-01-21T01:54:07.376Z,0
2019-01-21T01:55:16.058Z,0
2019-01-21T01:56:25.750Z,0
2019-01-21T01:57:35.704Z,0
2019-01-21T01:58:45.394Z,0
2019-01-21T01:59:55.081Z,0
2019-01-21T02:01:04.812Z,0
2019-01-21T02:02:14.248Z,0
2019-01-21T02:03:23.695Z,0
2019-01-21T02:04:33.388Z,0
2019-01-21T02:05:43.079Z,0
2019-01-21T02:06:53.695Z,0
2019-01-21T02:08:04.148Z,0
2019-01-21T02:09:14.409Z,0
2019-01-21T02:10:24.656Z,0
2019-01-21T02:11:34.921Z,0
2019-01-21T02:12:44.934Z,0
2019-01-21T02:13:54.877Z,0
2019-01-21T02:15:04.142Z,0
2019-01-21T02:16:13.571Z,0
2019-01-21T02:17:23.514Z,0
2019-01-21T02:18:32.471Z,0
2019-01-21T02:19:42.408Z,0
2019-01-21T02:20:52.101Z,0
2019-01-21T02:22:01.785Z,0
2019-01-21T02:23:11.494Z,0
2019-01-21T02:24:21.181Z,0
2019-01-21T02:25:30.889Z,0
2019-01-21T02:26:40.579Z,0
2019-01-21T02:27:50.271Z,0
2019-01-21T02:28:59.766Z,0
2019-01-21T02:30:09.268Z,0
2019-01-21T02:31:19.005Z,0
2019-01-21T02:32:28.453Z,0
2019-01-21T02:33:37.644Z,0
2019-01-21T02:34:47.602Z,0
2019-01-21T02:35:57.296Z,0
2019-01-21T02:37:07.242Z,0
2019-01-21T02:38:16.683Z,0
2019-01-21T02:39:26.639Z,0
2019-01-21T02:40:36.601Z,0
2019-01-21T02:41:45.797Z,0
2019-01-21T02:42:55.484Z,0
2019-01-21T02:44:05.185Z,0
2019-01-21T02:45:14.915Z,0
2019-01-21T02:46:24.359Z,0
2019-01-21T02:47:34.058Z,0
2019-01-21T02:48:43.781Z,0
2019-01-21T02:49:53.237Z,0
2019-01-21T02:51:03.223Z,0
2019-01-21T02:52:13.265Z,0
2019-01-21T02:53:24.193Z,0
2019-01-21T02:54:34.498Z,0
2019-01-21T02:55:44.745Z,0
2019-01-21T02:56:54.432Z,0
2019-01-21T02:58:04.129Z,0
2019-01-21T02:59:14.065Z,0
2019-01-21T03:00:23.508Z,0
2019-01-21T03:01:32.951Z,0
2019-01-21T03:02:42.660Z,0
2019-01-21T03:03:52.597Z,0
2019-01-21T03:05:02.716Z,0
2019-01-21T03:06:12.169Z,0
2019-01-21T03:07:21.877Z,0
2019-01-21T03:08:31.591Z,0
2019-01-21T03:09:41.530Z,0
2019-01-21T03:10:51.478Z,0
2019-01-21T03:12:01.420Z,0
2019-01-21T03:13:10.633Z,0
2019-01-21T03:14:20.092Z,0
2019-01-21T03:15:29.537Z,0
2019-01-21T03:16:39.245Z,0
2019-01-21T03:17:48.689Z,0
2019-01-21T03:18:57.867Z,0
2019-01-21T03:20:07.584Z,0
2019-01-21T03:21:17.281Z,0
2019-01-21T03:22:26.742Z,0
2019-01-21T03:23:35.939Z,0
2019-01-21T03:24:45.435Z,0
2019-01-21T03:25:55.399Z,0
2019-01-21T03:27:04.871Z,0
2019-01-21T03:28:14.574Z,0
2019-01-21T03:29:24.561Z,0
2019-01-21T03:30:34.027Z,0
2019-01-21T03:31:44.116Z,0
2019-01-21T03:32:54.132Z,0
2019-01-21T03:34:04.131Z,0
2019-01-21T03:35:14.756Z,0
2019-01-21T03:36:25.506Z,0
2019-01-21T03:37:35.919Z,0
2019-01-21T03:38:46.363Z,0
2019-01-21T03:39:56.557Z,0
2019-01-21T03:41:06.190Z,0
2019-01-21T03:42:15.892Z,0
2019-01-21T03:43:25.578Z,0
2019-01-21T03:44:35.277Z,0
2019-01-21T03:45:45.229Z,0
2019-01-21T03:46:55.245Z,0
2019-01-21T03:48:04.957Z,0
2019-01-21T03:49:14.929Z,0
2019-01-21T03:50:24.639Z,0
2019-01-21T03:51:34.341Z,0
2019-01-21T03:52:43.546Z,0
2019-01-21T03:53:53.003Z,0
2019-01-21T03:55:02.456Z,0
2019-01-21T03:56:11.908Z,0
2019-01-21T03:57:21.606Z,0
2019-01-21T03:58:31.561Z,0
2019-01-21T03:59:41.519Z,0
2019-01-21T04:00:51.210Z,0
2019-01-21T04:02:00.906Z,0
2019-01-21T04:03:10.594Z,0
2019-01-21T04:04:20.319Z,0
2019-01-21T04:05:30.017Z,0
2019-01-21T04:06:39.461Z,0
2019-01-21T04:07:49.405Z,0
2019-01-21T04:08:58.857Z,0
2019-01-21T04:10:08.597Z,0
2019-01-21T04:11:18.287Z,0
2019-01-21T04:12:28.242Z,0
2019-01-21T04:13:37.694Z,0
2019-01-21T04:14:47.633Z,0
2019-01-21T04:15:57.581Z,0
2019-01-21T04:17:07.532Z,0
2019-01-21T04:18:24.305Z,0
2019-01-21T04:19:35.038Z,0
2019-01-21T04:20:45.275Z,0
2019-01-21T04:21:55.390Z,0
2019-01-21T04:23:05.101Z,0
2019-01-21T04:24:15.046Z,0
2019-01-21T04:25:25.004Z,0
2019-01-21T04:26:34.468Z,0
2019-01-21T04:27:44.427Z,0
2019-01-21T04:28:54.123Z,0
2019-01-21T04:30:04.089Z,0
2019-01-21T04:31:14.034Z,0
2019-01-21T04:32:23.738Z,0
2019-01-21T04:33:33.445Z,0
2019-01-21T04:34:43.424Z,0
2019-01-21T04:35:53.189Z,0
2019-01-21T04:37:02.883Z,0
2019-01-21T04:38:12.590Z,0
2019-01-21T04:39:22.291Z,0
2019-01-21T04:40:31.999Z,0
2019-01-21T04:41:41.958Z,0
2019-01-21T04:42:51.926Z,0
2019-01-21T04:44:01.626Z,0
2019-01-21T04:45:11.362Z,0
2019-01-21T04:46:21.668Z,0
2019-01-21T04:47:31.637Z,0
2019-01-21T04:48:42.298Z,0
2019-01-21T04:49:51.997Z,0
2019-01-21T04:51:01.948Z,0
2019-01-21T04:52:11.902Z,0
2019-01-21T04:53:21.853Z,0
2019-01-21T04:54:31.310Z,0
2019-01-21T04:55:40.757Z,0
2019-01-21T04:56:50.728Z,0
2019-01-21T04:58:00.868Z,0
2019-01-21T04:59:11.644Z,0
2019-01-21T05:00:22.123Z,0
2019-01-21T05:01:32.410Z,0
2019-01-21T05:02:42.533Z,0
2019-01-21T05:03:54.545Z,0
2019-01-21T05:05:04.510Z,0
2019-01-21T05:06:14.008Z,0
2019-01-21T05:07:23.947Z,0
2019-01-21T05:08:33.954Z,0
2019-01-21T05:09:43.651Z,0
2019-01-21T05:10:53.403Z,0
2019-01-21T05:12:03.105Z,0
2019-01-21T05:13:13.066Z,0
2019-01-21T05:14:22.518Z,0
2019-01-21T05:15:32.315Z,0
2019-01-21T05:16:42.255Z,0
2019-01-21T05:17:51.713Z,0
2019-01-21T05:19:01.165Z,0
2019-01-21T05:20:11.873Z,0
2019-01-21T05:21:21.602Z,0
2019-01-21T05:22:31.317Z,0
2019-01-21T05:23:40.770Z,0
2019-01-21T05:24:50.474Z,0
2019-01-21T05:25:59.916Z,0
2019-01-21T05:27:09.663Z,0
2019-01-21T05:28:19.381Z,0
2019-01-21T05:29:29.085Z,0
2019-01-21T05:30:38.781Z,0
2019-01-21T05:31:48.487Z,0
2019-01-21T05:32:58.438Z,0
2019-01-21T05:34:08.132Z,0
2019-01-21T05:35:17.838Z,0
2019-01-21T05:36:27.954Z,0
2019-01-21T05:37:37.658Z,0
2019-01-21T05:38:47.593Z,0
2019-01-21T05:39:57.273Z,0
2019-01-21T05:41:06.950Z,0
2019-01-21T05:42:16.622Z,0
2019-01-21T05:43:26.542Z,0
2019-01-21T05:44:36.460Z,0
2019-01-21T05:45:46.133Z,0
2019-01-21T05:46:55.815Z,0
2019-01-21T05:48:05.491Z,0
2019-01-21T05:49:15.423Z,0
2019-01-21T05:50:25.101Z,0
2019-01-21T05:51:34.771Z,0
2019-01-21T05:52:44.447Z,0
2019-01-21T05:53:54.374Z,0
2019-01-21T05:55:04.104Z,0
2019-01-21T05:56:13.786Z,0
2019-01-21T05:57:23.458Z,0
2019-01-21T05:58:33.124Z,0
2019-01-21T05:59:42.548Z,0
2019-01-21T06:00:51.964Z,0
2019-01-21T06:02:01.928Z,0
2019-01-21T06:03:11.596Z,0
2019-01-21T06:04:21.513Z,0
2019-01-21T06:05:30.930Z,0
2019-01-21T06:06:40.596Z,0
2019-01-21T06:07:49.778Z,0
2019-01-21T06:08:59.451Z,0
2019-01-21T06:10:09.121Z,0
2019-01-21T06:11:18.810Z,0
2019-01-21T06:12:28.480Z,0
2019-01-21T06:13:38.149Z,0
2019-01-21T06:14:47.559Z,0
2019-01-21T06:15:57.247Z,0
2019-01-21T06:17:06.416Z,0
2019-01-21T06:18:16.337Z,0
2019-01-21T06:19:26.261Z,0
2019-01-21T06:20:35.940Z,0
2019-01-21T06:21:45.885Z,0
2019-01-21T06:22:55.576Z,0
2019-01-21T06:24:04.996Z,0
2019-01-21T06:25:14.684Z,0
2019-01-21T06:26:24.105Z,0
2019-01-21T06:27:34.032Z,0
2019-01-21T06:28:43.452Z,0
2019-01-21T06:29:53.112Z,0
2019-01-21T06:31:03.034Z,0
2019-01-21T06:32:12.962Z,0
2019-01-21T06:33:22.630Z,0
2019-01-21T06:34:32.613Z,0
2019-01-21T06:35:42.083Z,0
2019-01-21T06:36:51.499Z,0
2019-01-21T06:38:00.666Z,0
2019-01-21T06:39:10.591Z,0
2019-01-21T06:40:20.014Z,0
2019-01-21T06:41:29.940Z,0
2019-01-21T06:42:39.856Z,0
2019-01-21T06:43:49.768Z,0
2019-01-21T06:44:59.690Z,0
2019-01-21T06:46:08.860Z,0
2019-01-21T06:47:18.537Z,0
2019-01-21T06:48:28.451Z,0
2019-01-21T06:49:37.862Z,0
2019-01-21T06:50:47.535Z,0
2019-01-21T06:51:56.950Z,0
2019-01-21T06:53:06.618Z,0
2019-01-21T06:54:16.284Z,0
2019-01-21T06:55:25.953Z,0
2019-01-21T06:56:36.557Z,0
2019-01-21T06:57:46.226Z,0
2019-01-21T06:58:55.642Z,0
2019-01-21T07:00:05.301Z,0
2019-01-21T07:01:14.963Z,0
2019-01-21T07:02:24.625Z,0
2019-01-21T07:03:34.295Z,0
2019-01-21T07:04:44.231Z,0
2019-01-21T07:05:54.147Z,0
2019-01-21T07:07:03.573Z,0
2019-01-21T07:08:13.232Z,0
2019-01-21T07:09:23.143Z,0
2019-01-21T07:10:32.319Z,0
2019-01-21T07:11:41.990Z,0
2019-01-21T07:12:53.258Z,0
2019-01-21T07:14:03.175Z,0
2019-01-21T07:15:12.833Z,5
2019-01-21T07:16:22.496Z,5
2019-01-21T07:17:31.914Z,5
2019-01-21T07:18:41.580Z,5
2019-01-21T07:19:53.206Z,5
2019-01-21T07:21:02.874Z,5
2019-01-21T07:22:12.538Z,10
2019-01-21T07:23:22.454Z,10
2019-01-21T07:24:32.376Z,10
2019-01-21T07:25:41.795Z,10
2019-01-21T07:26:50.961Z,10
2019-01-21T07:28:00.371Z,15
2019-01-21T07:29:10.282Z,15
2019-01-21T07:30:19.957Z,15
2019-01-21T07:31:29.623Z,15
2019-01-21T07:32:39.032Z,20
2019-01-21T07:33:48.194Z,20
2019-01-21T07:34:57.615Z,20
2019-01-21T07:36:07.040Z,20
2019-01-21T07:37:16.711Z,25
2019-01-21T07:38:26.124Z,25
2019-01-21T07:39:38.688Z,25
2019-01-21T07:40:47.861Z,30
2019-01-21T07:41:57.277Z,30
2019-01-21T07:43:07.579Z,30
2019-01-21T07:44:17.500Z,35
2019-01-21T07:45:26.419Z,35
2019-01-21T07:46:36.086Z,35
2019-01-21T07:47:45.250Z,40
2019-01-21T07:48:54.669Z,40
2019-01-21T07:50:03.837Z,40
2019-01-21T07:51:13.505Z,45
2019-01-21T07:52:23.174Z,45
2019-01-21T07:53:33.091Z,45
2019-01-21T07:54:42.756Z,45
2019-01-21T07:55:52.676Z,45
2019-01-21T07:57:02.093Z,45
2019-01-21T07:58:12.003Z,50
2019-01-21T07:59:21.421Z,50
2019-01-21T08:00:31.094Z,50
2019-01-21T08:01:41.011Z,50
2019-01-21T08:02:50.433Z,55
2019-01-21T08:04:00.359Z,55
2019-01-21T08:05:10.289Z,55
2019-01-21T08:06:19.702Z,55
2019-01-21T08:07:29.127Z,55
2019-01-21T08:08:38.553Z,55
2019-01-21T08:09:47.980Z,60
2019-01-21T08:10:57.901Z,60
2019-01-21T08:12:07.820Z,60
2019-01-21T08:13:17.745Z,65
2019-01-21T08:14:27.418Z,65
2019-01-21T08:15:37.080Z,70
2019-01-21T08:16:47.001Z,70
2019-01-21T08:17:57.413Z,75
2019-01-21T08:19:07.085Z,80
2019-01-21T08:20:16.997Z,85
2019-01-21T08:21:26.904Z,85
2019-01-21T08:22:36.823Z,90
2019-01-21T08:23:46.506Z,90
2019-01-21T08:24:56.179Z,95
2019-01-21T08:26:06.099Z,95
2019-01-21T08:27:15.769Z,95
2019-01-21T08:28:26.784Z,95
2019-01-21T08:29:36.447Z,95
2019-01-21T08:30:46.359Z,95
2019-01-21T08:31:56.030Z,95
2019-01-21T08:33:05.698Z,95
2019-01-21T08:34:15.370Z,95
2019-01-21T08:35:25.037Z,95
2019-01-21T08:36:34.956Z,95
2019-01-21T08:37:44.627Z,100
2019-01-21T08:38:54.333Z,105
2019-01-21T08:40:04.004Z,110
2019-01-21T08:41:13.674Z,110
2019-01-21T08:42:23.337Z,110
2019-01-21T08:43:33.020Z,115
2019-01-21T08:44:42.197Z,125
2019-01-21T08:45:52.111Z,130
2019-01-21T08:47:01.772Z,135
2019-01-21T08:48:11.697Z,140
2019-01-21T08:49:20.866Z,145
2019-01-21T08:50:30.531Z,145
2019-01-21T08:51:40.024Z,145
2019-01-21T08:52:49.697Z,150
2019-01-21T08:53:59.610Z,150
2019-01-21T08:55:09.535Z,150
2019-01-21T08:56:19.459Z,150
2019-01-21T08:57:29.130Z,150
2019-01-21T08:58:38.796Z,150
2019-01-21T08:59:48.718Z,150
2019-01-21T09:00:58.390Z,145
2019-01-21T09:02:08.100Z,145
2019-01-21T09:03:21.754Z,145
2019-01-21T09:04:31.682Z,150
2019-01-21T09:05:41.100Z,150
2019-01-21T09:06:50.517Z,150
2019-01-21T09:08:00.442Z,150
2019-01-21T09:09:10.365Z,150
2019-01-21T09:10:20.039Z,155
2019-01-21T09:11:29.963Z,160
2019-01-21T09:12:39.634Z,160
2019-01-21T09:13:50.238Z,160
2019-01-21T09:14:59.898Z,165
2019-01-21T09:16:09.370Z,175
2019-01-21T09:17:19.294Z,175
2019-01-21T09:18:28.965Z,175
2019-01-21T09:19:43.878Z,175
2019-01-21T09:20:53.797Z,170
2019-01-21T09:22:02.969Z,165
2019-01-21T09:23:12.392Z,160
2019-01-21T09:24:22.970Z,155
2019-01-21T09:25:32.633Z,150
2019-01-21T09:26:42.302Z,145
2019-01-21T09:27:52.224Z,140
2019-01-21T09:29:01.646Z,135
2019-01-21T09:30:11.563Z,135
2019-01-21T09:31:20.984Z,140
2019-01-21T09:32:30.653Z,145
2019-01-21T09:33:40.359Z,145
2019-01-21T09:34:50.026Z,145
2019-01-21T09:35:59.946Z,145
2019-01-21T09:37:09.868Z,145
2019-01-21T09:38:19.298Z,150
2019-01-21T09:39:28.967Z,150
2019-01-21T09:40:38.413Z,145
2019-01-21T09:41:48.342Z,140
2019-01-21T09:42:58.012Z,145
2019-01-21T09:44:07.927Z,145
2019-01-21T09:45:17.596Z,155
2019-01-21T09:46:27.272Z,160
2019-01-21T09:47:37.192Z,165
2019-01-21T09:48:46.857Z,165
2019-01-21T09:49:56.532Z,175
2019-01-21T09:51:06.454Z,185
2019-01-21T09:52:16.370Z,195
2019-01-21T09:53:25.795Z,200
2019-01-21T09:54:35.220Z,205
2019-01-21T09:55:44.930Z,205
2019-01-21T09:56:54.425Z,210
2019-01-21T09:58:04.370Z,210
2019-01-21T09:59:13.802Z,210
2019-01-21T10:00:23.478Z,205
2019-01-21T10:01:33.150Z,205
2019-01-21T10:02:42.591Z,200
2019-01-21T10:03:52.029Z,200
2019-01-21T10:05:01.700Z,195
2019-01-21T10:06:11.370Z,195
2019-01-21T10:07:21.061Z,190
2019-01-21T10:08:30.481Z,185
2019-01-21T10:09:39.907Z,185
2019-01-21T10:10:49.824Z,185
2019-01-21T10:11:59.747Z,185
2019-01-21T10:13:09.665Z,180
2019-01-21T10:14:19.585Z,175
2019-01-21T10:15:30.010Z,175
2019-01-21T10:16:39.562Z,170
2019-01-21T10:17:48.735Z,165
2019-01-21T10:18:58.157Z,170
2019-01-21T10:20:07.584Z,175
2019-01-21T10:21:17.251Z,185
2019-01-21T10:22:27.168Z,180
2019-01-21T10:23:36.585Z,185
2019-01-21T10:24:46.248Z,190
2019-01-21T10:25:55.928Z,200
2019-01-21T10:27:05.895Z,205
2019-01-21T10:28:15.562Z,210
2019-01-21T10:29:25.237Z,200
2019-01-21T10:30:34.907Z,200
2019-01-21T10:31:44.587Z,200
2019-01-21T10:32:54.505Z,200
2019-01-21T10:34:04.425Z,190
2019-01-21T10:35:13.597Z,190
2019-01-21T10:36:23.521Z,185
2019-01-21T10:37:33.195Z,195
2019-01-21T10:38:42.366Z,170
2019-01-21T10:39:52.284Z,165
2019-01-21T10:41:01.453Z,160
2019-01-21T10:42:10.885Z,155
2019-01-21T10:43:21.109Z,155
2019-01-21T10:44:30.526Z,155
2019-01-21T10:45:39.697Z,160
2019-01-21T10:46:49.369Z,165
2019-01-21T10:47:59.286Z,170
2019-01-21T10:49:09.209Z,165
2019-01-21T10:50:18.880Z,170
2019-01-21T10:51:28.541Z,175
2019-01-21T10:52:37.964Z,175
2019-01-21T10:53:47.885Z,175
2019-01-21T10:54:57.807Z,165
2019-01-21T10:56:07.739Z,180
2019-01-21T10:57:17.408Z,180
2019-01-21T10:58:27.081Z,180
2019-01-21T10:59:36.754Z,180
2019-01-21T11:00:46.425Z,180
2019-01-21T11:01:56.343Z,185
2019-01-21T11:03:07.458Z,190
2019-01-21T11:04:16.876Z,190
2019-01-21T11:05:26.303Z,195
2019-01-21T11:06:36.233Z,200
2019-01-21T11:07:46.158Z,200
2019-01-21T11:08:55.824Z,195
2019-01-21T11:10:05.744Z,195
2019-01-21T11:11:15.671Z,195
2019-01-21T11:12:25.588Z,200
2019-01-21T11:13:35.259Z,200
2019-01-21T11:14:44.697Z,205
2019-01-21T11:15:54.309Z,210
2019-01-21T11:17:03.979Z,205
2019-01-21T11:18:13.644Z,200
2019-01-21T11:19:26.949Z,200
2019-01-21T11:20:36.876Z,195
2019-01-21T11:21:46.550Z,200
2019-01-21T11:22:55.720Z,210
2019-01-21T11:24:05.653Z,230
2019-01-21T11:25:15.070Z,245
2019-01-21T11:26:24.994Z,260
2019-01-21T11:27:34.669Z,265
2019-01-21T11:28:44.957Z,265
2019-01-21T11:29:54.382Z,270
2019-01-21T11:31:04.309Z,265
2019-01-21T11:32:13.984Z,275
2019-01-21T11:33:23.165Z,285
2019-01-21T11:34:32.799Z,285
2019-01-21T11:35:42.266Z,260
2019-01-21T11:36:51.439Z,235
2019-01-21T11:38:00.879Z,205
2019-01-21T11:39:10.800Z,210
2019-01-21T11:40:20.474Z,205
2019-01-21T11:41:30.393Z,180
2019-01-21T11:42:39.813Z,180
2019-01-21T11:43:49.483Z,175
2019-01-21T11:44:59.409Z,165
2019-01-21T11:46:09.338Z,165
2019-01-21T11:47:19.266Z,170
2019-01-21T11:48:28.942Z,170
2019-01-21T11:49:38.863Z,170
2019-01-21T11:50:48.534Z,175
2019-01-21T11:51:58.220Z,175
2019-01-21T11:53:07.894Z,190
2019-01-21T11:54:16.850Z,185
2019-01-21T11:55:26.521Z,190
2019-01-21T11:56:36.192Z,195
2019-01-21T11:57:45.864Z,200
2019-01-21T11:58:55.799Z,205
2019-01-21T12:00:05.478Z,210
2019-01-21T12:01:14.905Z,215
2019-01-21T12:02:24.326Z,220
2019-01-21T12:03:34.254Z,225
2019-01-21T12:04:43.929Z,235
2019-01-21T12:05:53.857Z,240
2019-01-21T12:07:03.539Z,235
2019-01-21T12:08:13.210Z,225
2019-01-21T12:09:22.893Z,215
2019-01-21T12:10:32.818Z,210
2019-01-21T12:11:42.490Z,205
2019-01-21T12:12:52.161Z,205
2019-01-21T12:14:01.843Z,205
2019-01-21T12:15:11.268Z,205
2019-01-21T12:16:20.945Z,205
2019-01-21T12:17:30.373Z,210
2019-01-21T12:18:40.044Z,220
2019-01-21T12:19:49.972Z,225
2019-01-21T12:20:59.392Z,240
2019-01-21T12:22:09.331Z,270
2019-01-21T12:23:19.003Z,300
2019-01-21T12:24:28.934Z,325
2019-01-21T12:25:38.612Z,345
2019-01-21T12:26:48.036Z,355
2019-01-21T12:27:57.457Z,365
2019-01-21T12:29:07.133Z,370
2019-01-21T12:30:17.052Z,365
2019-01-21T12:31:26.983Z,360
2019-01-21T12:32:36.912Z,345
2019-01-21T12:33:46.327Z,320
2019-01-21T12:34:55.752Z,310
2019-01-21T12:36:05.680Z,310
2019-01-21T12:37:15.637Z,325
2019-01-21T12:38:25.305Z,345
2019-01-21T12:39:34.722Z,365
2019-01-21T12:40:44.144Z,375
2019-01-21T12:41:53.567Z,360
2019-01-21T12:43:03.010Z,350
2019-01-21T12:44:12.936Z,350
2019-01-21T12:45:22.914Z,345
2019-01-21T12:46:32.832Z,350
2019-01-21T12:47:42.499Z,355
2019-01-21T12:48:51.921Z,375
2019-01-21T12:50:01.850Z,385
2019-01-21T12:51:11.526Z,390
2019-01-21T12:52:21.210Z,390
2019-01-21T12:53:30.892Z,390
2019-01-21T12:54:40.577Z,385
2019-01-21T12:55:50.254Z,400
2019-01-21T12:56:59.999Z,425
2019-01-21T12:58:09.709Z,450
2019-01-21T12:59:25.333Z,475
2019-01-21T13:00:35.259Z,490
2019-01-21T13:01:44.184Z,495
2019-01-21T13:02:53.616Z,490
2019-01-21T13:04:03.041Z,485
2019-01-21T13:05:12.972Z,470
2019-01-21T13:06:22.646Z,440
2019-01-21T13:07:32.332Z,420
2019-01-21T13:08:42.017Z,390
2019-01-21T13:09:51.694Z,355
2019-01-21T13:11:01.709Z,450
2019-01-21T13:12:11.138Z,550
2019-01-21T13:13:20.813Z,390
2019-01-21T13:14:30.235Z,330
2019-01-21T13:15:39.658Z,230
2019-01-21T13:16:49.083Z,205
2019-01-21T13:17:58.504Z,180
2019-01-21T13:19:08.173Z,150
2019-01-21T13:20:17.594Z,135
2019-01-21T13:21:27.016Z,130
2019-01-21T13:22:36.718Z,135
2019-01-21T13:23:45.910Z,130
2019-01-21T13:24:55.817Z,115
2019-01-21T13:26:04.739Z,105
2019-01-21T13:27:15.354Z,90
2019-01-21T13:28:25.040Z,80
2019-01-21T13:29:34.488Z,75
2019-01-21T13:30:44.412Z,70
2019-01-21T13:31:54.095Z,65
2019-01-21T13:33:04.028Z,70
2019-01-21T13:34:13.455Z,70
2019-01-21T13:35:23.123Z,75
2019-01-21T13:36:32.804Z,75
2019-01-21T13:37:42.737Z,85
2019-01-21T13:38:52.415Z,90
2019-01-21T13:40:02.349Z,100
2019-01-21T13:41:12.077Z,120
2019-01-21T13:42:21.760Z,120
2019-01-21T13:43:30.946Z,120
2019-01-21T13:44:40.618Z,130
2019-01-21T13:45:49.790Z,135
2019-01-21T13:46:59.711Z,135
2019-01-21T13:48:09.392Z,130
2019-01-21T13:49:18.817Z,120
2019-01-21T13:50:28.496Z,110
2019-01-21T13:51:38.419Z,105
2019-01-21T13:52:48.092Z,105
2019-01-21T13:53:58.023Z,105
2019-01-21T13:55:08.723Z,105
2019-01-21T13:56:18.652Z,100
2019-01-21T13:57:28.073Z,100
2019-01-21T13:58:37.496Z,105
2019-01-21T13:59:47.175Z,110
2019-01-21T14:00:57.712Z,105
2019-01-21T14:02:07.424Z,105
2019-01-21T14:03:16.848Z,110
2019-01-21T14:04:26.051Z,110
2019-01-21T14:05:39.896Z,105
2019-01-21T14:06:49.816Z,100
2019-01-21T14:07:59.786Z,90
2019-01-21T14:09:09.460Z,80
2019-01-21T14:10:19.139Z,75
2019-01-21T14:11:28.815Z,75
2019-01-21T14:12:38.734Z,75
2019-01-21T14:13:47.667Z,75
2019-01-21T14:14:57.588Z,70
2019-01-21T14:16:07.018Z,70
2019-01-21T14:17:16.685Z,70
2019-01-21T14:18:26.359Z,70
2019-01-21T14:19:36.032Z,75
2019-01-21T14:20:50.627Z,70
2019-01-21T14:22:00.053Z,70
2019-01-21T14:23:09.733Z,70
2019-01-21T14:24:19.407Z,70
2019-01-21T14:25:29.076Z,65
2019-01-21T14:26:38.495Z,65
2019-01-21T14:27:48.169Z,60
2019-01-21T14:28:57.843Z,55
2019-01-21T14:30:07.798Z,55
2019-01-21T14:31:16.971Z,55
2019-01-21T14:32:26.644Z,55
2019-01-21T14:33:36.321Z,60
2019-01-21T14:34:46.000Z,60
2019-01-21T14:35:55.432Z,65
2019-01-21T14:37:04.617Z,65
2019-01-21T14:38:14.537Z,65
2019-01-21T14:39:24.465Z,65
2019-01-21T14:40:34.142Z,65
2019-01-21T14:41:43.815Z,60
2019-01-21T14:42:53.241Z,55
2019-01-21T14:44:02.671Z,50
2019-01-21T14:45:12.605Z,50
2019-01-21T14:46:22.277Z,55
2019-01-21T14:47:31.847Z,55
2019-01-21T14:48:41.658Z,55
2019-01-21T14:49:51.342Z,50
2019-01-21T14:51:01.018Z,50
2019-01-21T14:52:10.978Z,45
2019-01-21T14:53:20.703Z,45
2019-01-21T14:54:30.217Z,45
2019-01-21T14:55:39.972Z,40
2019-01-21T14:56:49.972Z,40
2019-01-21T14:58:00.030Z,35
2019-01-21T14:59:09.393Z,30
2019-01-21T15:00:19.433Z,30
2019-01-21T15:01:29.255Z,25
2019-01-21T15:02:39.282Z,20
2019-01-21T15:03:48.904Z,20
2019-01-21T15:04:58.688Z,20
2019-01-21T15:06:08.699Z,20
2019-01-21T15:07:18.709Z,25
2019-01-21T15:08:28.316Z,25
2019-01-21T15:09:37.879Z,25
2019-01-21T15:10:47.961Z,25
2019-01-21T15:11:57.495Z,20
2019-01-21T15:13:07.474Z,20
2019-01-21T15:14:17.649Z,15
2019-01-21T15:15:27.534Z,15
2019-01-21T15:16:37.258Z,15
2019-01-21T15:17:47.320Z,15
2019-01-21T15:18:57.196Z,10
2019-01-21T15:20:06.963Z,10
2019-01-21T15:21:16.515Z,10
2019-01-21T15:22:26.085Z,10
2019-01-21T15:23:35.927Z,10
2019-01-21T15:24:45.794Z,10
2019-01-21T15:25:55.407Z,10
2019-01-21T15:27:05.380Z,10
2019-01-21T15:28:15.600Z,5
2019-01-21T15:29:25.718Z,5
2019-01-21T15:30:35.656Z,5
2019-01-21T15:31:45.879Z,5
2019-01-21T15:32:56.083Z,5
2019-01-21T15:34:06.321Z,5
2019-01-21T15:35:20.418Z,5
2019-01-21T15:36:30.785Z,5
2019-01-21T15:37:40.635Z,5
2019-01-21T15:38:50.058Z,0
2019-01-21T15:39:59.970Z,0
2019-01-21T15:41:10.234Z,0
2019-01-21T15:42:20.473Z,0
2019-01-21T15:43:30.284Z,0
2019-01-21T15:44:40.396Z,0
2019-01-21T15:45:56.625Z,0
2019-01-21T15:47:06.801Z,0
2019-01-21T15:48:16.226Z,0
2019-01-21T15:49:25.652Z,0
2019-01-21T15:50:35.326Z,0
2019-01-21T15:51:44.994Z,0
2019-01-21T15:52:54.937Z,0
2019-01-21T15:54:04.866Z,0
2019-01-21T15:55:14.545Z,0
2019-01-21T15:56:24.816Z,0
2019-01-21T15:57:34.242Z,0
2019-01-21T15:58:44.162Z,0
2019-01-21T15:59:53.329Z,0
2019-01-21T16:01:03.249Z,0
2019-01-21T16:02:12.924Z,0
2019-01-21T16:03:22.848Z,0
2019-01-21T16:04:32.780Z,0
2019-01-21T16:05:42.700Z,0
2019-01-21T16:06:52.735Z,0
2019-01-21T16:08:02.687Z,0
2019-01-21T16:09:12.362Z,0
2019-01-21T16:10:21.537Z,0
2019-01-21T16:11:31.207Z,0
2019-01-21T16:12:40.632Z,0
2019-01-21T16:13:50.054Z,0
2019-01-21T16:14:59.722Z,0
2019-01-21T16:16:09.397Z,0
2019-01-21T16:17:18.816Z,0
2019-01-21T16:18:28.251Z,0
2019-01-21T16:19:37.927Z,0
2019-01-21T16:20:47.601Z,0
2019-01-21T16:21:57.275Z,0
2019-01-21T16:23:06.963Z,0
2019-01-21T16:24:16.377Z,0
2019-01-21T16:25:25.797Z,0
2019-01-21T16:26:40.109Z,0
2019-01-21T16:27:50.032Z,0
2019-01-21T16:28:59.960Z,0
2019-01-21T16:30:09.627Z,0
2019-01-21T16:31:18.801Z,0
2019-01-21T16:32:28.228Z,0
2019-01-21T16:33:37.647Z,0
2019-01-21T16:34:47.320Z,0
2019-01-21T16:35:56.999Z,0
2019-01-21T16:37:06.672Z,0
2019-01-21T16:38:16.089Z,0
2019-01-21T16:39:26.011Z,0
2019-01-21T16:40:35.685Z,0
2019-01-21T16:41:46.676Z,0